sensor_id;sensor_type;location;lat;lon;timestamp;P1;durP1;ratioP1;P2;durP2;ratioP2
51090;SDS011;37136;43.614;3.908;2022-08-19T18:01:42;4.55;;;1.98;;
51090;SDS011;37136;43.614;3.908;2022-08-19T18:04:09;2.40;;;2.08;;
51090;SDS011;37136;43.614;3.908;2022-08-19T18:06:35;3.40;;;2.10;;
51090;SDS011;37136;43.614;3.908;2022-08-19T18:09:02;2.47;;;2.10;;
51090;SDS011;37136;43.614;3.908;2022-08-19T18:11:30;2.63;;;1.80;;
51090;SDS011;37136;43.614;3.908;2022-08-19T18:13:56;3.53;;;1.77;;
51090;SDS011;37136;43.614;3.908;2022-08-19T18:16:21;2.55;;;1.98;;
51090;SDS011;37136;43.614;3.908;2022-08-19T18:18:47;3.08;;;2.33;;
51090;SDS011;37136;43.614;3.908;2022-08-19T18:21:13;3.55;;;2.40;;
51090;SDS011;37136;43.614;3.908;2022-08-19T18:23:42;2.30;;;1.80;;
51090;SDS011;37136;43.614;3.908;2022-08-19T18:26:07;1.90;;;1.80;;
51090;SDS011;37136;43.614;3.908;2022-08-19T18:28:33;2.47;;;1.77;;
51090;SDS011;37136;43.614;3.908;2022-08-19T18:30:59;5.60;;;2.10;;
51090;SDS011;37136;43.614;3.908;2022-08-19T18:33:27;3.57;;;2.43;;
51090;SDS011;37136;43.614;3.908;2022-08-19T18:35:53;6.93;;;3.35;;
51090;SDS011;37136;43.614;3.908;2022-08-19T18:38:20;3.85;;;1.95;;
51090;SDS011;37136;43.614;3.908;2022-08-19T18:41:05;3.63;;;1.58;;
51090;SDS011;37136;43.614;3.908;2022-08-19T18:43:50;2.83;;;1.70;;
51090;SDS011;37136;43.614;3.908;2022-08-19T18:46:34;4.50;;;1.80;;
51090;SDS011;37136;43.614;3.908;2022-08-19T18:49:26;2.53;;;1.90;;
51090;SDS011;37136;43.614;3.908;2022-08-19T18:51:54;2.60;;;1.58;;
51090;SDS011;37136;43.614;3.908;2022-08-19T18:54:21;3.55;;;1.73;;
51090;SDS011;37136;43.614;3.908;2022-08-19T18:56:48;5.35;;;1.92;;
51090;SDS011;37136;43.614;3.908;2022-08-19T18:59:22;1.80;;;1.70;;
51090;SDS011;37136;43.614;3.908;2022-08-19T19:01:49;3.97;;;2.45;;
51090;SDS011;37136;43.614;3.908;2022-08-19T19:04:20;1.92;;;1.80;;
51090;SDS011;37136;43.614;3.908;2022-08-19T19:06:51;5.15;;;2.10;;
51090;SDS011;37136;43.614;3.908;2022-08-19T19:09:19;2.78;;;1.80;;
51090;SDS011;37136;43.614;3.908;2022-08-19T19:11:48;2.50;;;1.88;;
51090;SDS011;37136;43.614;3.908;2022-08-19T19:14:20;2.10;;;1.83;;
51090;SDS011;37136;43.614;3.908;2022-08-19T19:16:49;4.32;;;2.00;;
51090;SDS011;37136;43.614;3.908;2022-08-19T19:19:15;4.03;;;1.83;;
51090;SDS011;37136;43.614;3.908;2022-08-19T19:21:42;2.83;;;2.42;;
51090;SDS011;37136;43.614;3.908;2022-08-19T19:24:14;3.22;;;2.30;;
51090;SDS011;37136;43.614;3.908;2022-08-19T19:26:41;2.75;;;2.00;;
51090;SDS011;37136;43.614;3.908;2022-08-19T19:31:36;5.00;;;2.30;;
51090;SDS011;37136;43.614;3.908;2022-08-19T19:34:02;4.80;;;2.42;;
51090;SDS011;37136;43.614;3.908;2022-08-19T19:36:29;4.38;;;2.50;;
51090;SDS011;37136;43.614;3.908;2022-08-19T19:38:55;4.88;;;2.75;;
51090;SDS011;37136;43.614;3.908;2022-08-19T19:41:22;5.28;;;2.67;;
51090;SDS011;37136;43.614;3.908;2022-08-19T19:43:49;2.33;;;2.13;;
51090;SDS011;37136;43.614;3.908;2022-08-19T19:46:15;3.55;;;2.45;;
51090;SDS011;37136;43.614;3.908;2022-08-19T19:48:42;2.63;;;2.30;;
51090;SDS011;37136;43.614;3.908;2022-08-19T19:51:09;2.70;;;2.22;;
51090;SDS011;37136;43.614;3.908;2022-08-19T19:53:35;5.80;;;2.50;;
51090;SDS011;37136;43.614;3.908;2022-08-19T19:56:00;2.58;;;2.20;;
51090;SDS011;37136;43.614;3.908;2022-08-19T19:58:28;2.42;;;2.20;;
51090;SDS011;37136;43.614;3.908;2022-08-19T20:00:57;3.53;;;2.57;;
51090;SDS011;37136;43.614;3.908;2022-08-19T20:03:23;3.10;;;2.30;;
51090;SDS011;37136;43.614;3.908;2022-08-19T20:05:49;2.67;;;2.22;;
51090;SDS011;37136;43.614;3.908;2022-08-19T20:08:16;4.35;;;2.30;;
51090;SDS011;37136;43.614;3.908;2022-08-19T20:11:02;4.57;;;2.30;;
51090;SDS011;37136;43.614;3.908;2022-08-19T20:15:56;2.10;;;1.90;;
51090;SDS011;37136;43.614;3.908;2022-08-19T20:18:22;4.55;;;2.90;;
51090;SDS011;37136;43.614;3.908;2022-08-19T20:20:49;4.43;;;2.35;;
51090;SDS011;37136;43.614;3.908;2022-08-19T20:23:19;2.83;;;2.22;;
51090;SDS011;37136;43.614;3.908;2022-08-19T20:25:46;6.38;;;2.00;;
51090;SDS011;37136;43.614;3.908;2022-08-19T20:28:13;2.75;;;2.35;;
51090;SDS011;37136;43.614;3.908;2022-08-19T20:30:40;2.65;;;2.45;;
51090;SDS011;37136;43.614;3.908;2022-08-19T20:33:06;3.72;;;2.30;;
51090;SDS011;37136;43.614;3.908;2022-08-19T20:35:33;2.50;;;2.00;;
51090;SDS011;37136;43.614;3.908;2022-08-19T20:38:00;3.58;;;2.05;;
51090;SDS011;37136;43.614;3.908;2022-08-19T20:40:28;3.35;;;2.33;;
51090;SDS011;37136;43.614;3.908;2022-08-19T20:42:54;2.50;;;2.00;;
51090;SDS011;37136;43.614;3.908;2022-08-19T20:45:21;4.13;;;2.22;;
51090;SDS011;37136;43.614;3.908;2022-08-19T20:47:48;2.50;;;2.20;;
51090;SDS011;37136;43.614;3.908;2022-08-19T20:50:14;2.85;;;2.60;;
51090;SDS011;37136;43.614;3.908;2022-08-19T20:52:41;3.47;;;2.70;;
51090;SDS011;37136;43.614;3.908;2022-08-19T20:55:08;4.20;;;2.67;;
51090;SDS011;37136;43.614;3.908;2022-08-19T20:57:35;3.58;;;2.70;;
51090;SDS011;37136;43.614;3.908;2022-08-19T21:00:02;3.13;;;2.65;;
51090;SDS011;37136;43.614;3.908;2022-08-19T21:02:31;5.20;;;2.60;;
51090;SDS011;37136;43.614;3.908;2022-08-19T21:04:57;4.20;;;2.50;;
51090;SDS011;37136;43.614;3.908;2022-08-19T21:07:23;2.95;;;2.72;;
51090;SDS011;37136;43.614;3.908;2022-08-19T21:09:48;3.42;;;2.72;;
51090;SDS011;37136;43.614;3.908;2022-08-19T21:12:16;3.13;;;2.50;;
51090;SDS011;37136;43.614;3.908;2022-08-19T21:14:43;3.17;;;2.88;;
51090;SDS011;37136;43.614;3.908;2022-08-19T21:17:11;3.75;;;2.88;;
51090;SDS011;37136;43.614;3.908;2022-08-19T21:19:36;5.32;;;2.95;;
51090;SDS011;37136;43.614;3.908;2022-08-19T21:22:03;3.65;;;2.83;;
51090;SDS011;37136;43.614;3.908;2022-08-19T21:24:29;4.95;;;2.85;;
51090;SDS011;37136;43.614;3.908;2022-08-19T21:26:55;7.32;;;2.65;;
51090;SDS011;37136;43.614;3.908;2022-08-19T21:29:21;4.65;;;2.95;;
51090;SDS011;37136;43.614;3.908;2022-08-19T21:31:47;3.00;;;2.70;;
51090;SDS011;37136;43.614;3.908;2022-08-19T21:34:14;4.30;;;2.95;;
51090;SDS011;37136;43.614;3.908;2022-08-19T21:36:40;4.20;;;3.10;;
51090;SDS011;37136;43.614;3.908;2022-08-19T21:39:06;6.00;;;3.45;;
51090;SDS011;37136;43.614;3.908;2022-08-19T21:41:33;3.05;;;2.80;;
51090;SDS011;37136;43.614;3.908;2022-08-19T21:43:58;3.10;;;2.55;;
51090;SDS011;37136;43.614;3.908;2022-08-19T21:46:25;5.40;;;3.40;;
51090;SDS011;37136;43.614;3.908;2022-08-19T21:48:52;3.30;;;3.00;;
51090;SDS011;37136;43.614;3.908;2022-08-19T21:51:18;5.43;;;2.88;;
51090;SDS011;37136;43.614;3.908;2022-08-19T21:53:43;3.58;;;2.78;;
51090;SDS011;37136;43.614;3.908;2022-08-19T21:56:09;5.05;;;2.88;;
51090;SDS011;37136;43.614;3.908;2022-08-19T21:58:36;4.00;;;2.80;;
51090;SDS011;37136;43.614;3.908;2022-08-19T22:01:02;3.50;;;2.67;;
51090;SDS011;37136;43.614;3.908;2022-08-19T22:03:32;6.35;;;2.95;;
51090;SDS011;37136;43.614;3.908;2022-08-19T22:05:59;4.43;;;2.75;;
51090;SDS011;37136;43.614;3.908;2022-08-19T22:08:25;4.57;;;3.00;;
51090;SDS011;37136;43.614;3.908;2022-08-19T22:10:51;4.00;;;3.15;;
51090;SDS011;37136;43.614;3.908;2022-08-19T22:13:18;2.97;;;2.72;;
51090;SDS011;37136;43.614;3.908;2022-08-19T22:15:44;3.47;;;2.72;;
51090;SDS011;37136;43.614;3.908;2022-08-19T22:18:10;5.13;;;3.05;;
51090;SDS011;37136;43.614;3.908;2022-08-19T22:20:37;3.75;;;3.28;;
51090;SDS011;37136;43.614;3.908;2022-08-19T22:23:05;4.20;;;2.72;;
51090;SDS011;37136;43.614;3.908;2022-08-19T22:25:33;5.38;;;3.20;;
51090;SDS011;37136;43.614;3.908;2022-08-19T22:28:06;3.80;;;2.53;;
51090;SDS011;37136;43.614;3.908;2022-08-19T22:30:34;6.03;;;2.90;;
51090;SDS011;37136;43.614;3.908;2022-08-19T22:33:03;6.25;;;2.83;;
51090;SDS011;37136;43.614;3.908;2022-08-19T22:35:32;4.65;;;3.03;;
51090;SDS011;37136;43.614;3.908;2022-08-19T22:40:27;4.47;;;3.17;;
51090;SDS011;37136;43.614;3.908;2022-08-19T22:43:02;6.40;;;3.22;;
51090;SDS011;37136;43.614;3.908;2022-08-19T22:45:30;3.30;;;2.92;;
51090;SDS011;37136;43.614;3.908;2022-08-19T22:47:57;6.93;;;3.13;;
51090;SDS011;37136;43.614;3.908;2022-08-19T22:50:24;6.38;;;3.20;;
51090;SDS011;37136;43.614;3.908;2022-08-19T22:52:54;3.88;;;2.80;;
51090;SDS011;37136;43.614;3.908;2022-08-19T22:55:24;6.50;;;3.13;;
51090;SDS011;37136;43.614;3.908;2022-08-19T22:57:51;7.70;;;3.03;;
51090;SDS011;37136;43.614;3.908;2022-08-19T23:00:17;5.43;;;2.80;;
51090;SDS011;37136;43.614;3.908;2022-08-19T23:02:45;5.28;;;3.05;;
51090;SDS011;37136;43.614;3.908;2022-08-19T23:05:11;5.53;;;3.22;;
51090;SDS011;37136;43.614;3.908;2022-08-19T23:07:40;6.18;;;3.55;;
51090;SDS011;37136;43.614;3.908;2022-08-19T23:10:07;3.75;;;2.70;;
51090;SDS011;37136;43.614;3.908;2022-08-19T23:12:36;5.28;;;2.88;;
51090;SDS011;37136;43.614;3.908;2022-08-19T23:15:06;4.05;;;2.75;;
51090;SDS011;37136;43.614;3.908;2022-08-19T23:17:43;5.15;;;2.88;;
51090;SDS011;37136;43.614;3.908;2022-08-19T23:20:10;4.97;;;2.70;;
51090;SDS011;37136;43.614;3.908;2022-08-19T23:22:38;5.82;;;3.20;;
51090;SDS011;37136;43.614;3.908;2022-08-19T23:25:14;6.10;;;2.90;;
51090;SDS011;37136;43.614;3.908;2022-08-19T23:27:43;5.43;;;3.22;;
51090;SDS011;37136;43.614;3.908;2022-08-19T23:30:29;3.60;;;2.70;;
51090;SDS011;37136;43.614;3.908;2022-08-19T23:32:57;4.50;;;2.33;;
51090;SDS011;37136;43.614;3.908;2022-08-19T23:35:29;2.92;;;2.22;;
51090;SDS011;37136;43.614;3.908;2022-08-19T23:37:56;3.22;;;2.55;;
51090;SDS011;37136;43.614;3.908;2022-08-19T23:40:23;4.15;;;2.63;;
51090;SDS011;37136;43.614;3.908;2022-08-19T23:42:49;4.35;;;2.55;;
51090;SDS011;37136;43.614;3.908;2022-08-19T23:45:15;3.63;;;2.65;;
51090;SDS011;37136;43.614;3.908;2022-08-19T23:47:46;3.78;;;2.92;;
51090;SDS011;37136;43.614;3.908;2022-08-19T23:50:12;4.47;;;2.72;;
51090;SDS011;37136;43.614;3.908;2022-08-19T23:52:43;4.80;;;2.35;;
51090;SDS011;37136;43.614;3.908;2022-08-19T23:55:11;5.75;;;2.63;;
51090;SDS011;37136;43.614;3.908;2022-08-19T23:57:37;5.28;;;2.72;;
